Time;durP1;ratioP1;P1;durP2;ratioP2;P2;SDS_P1;SDS_P2;PMS_P1;PMS_P2;Temp;Humidity;BMP_temperature;BMP_pressure;BME280_temperature;BME280_humidity;BME280_pressure;Samples;Min_cycle;Max_cycle;Signal;HPM_P1;HPM_P2
2023/01/01 00:06:42;;;;;;;13.90;7.40;;;;;;;11.24;87.46;99367.30;435787;1282;142476;-63
2023/01/01 00:16:48;;;;;;;5.40;4.10;;;;;;;11.16;87.83;99356.77;436452;1287;142413;-62
2023/01/01 00:26:54;;;;;;;9.30;6.10;;;;;;;11.18;87.91;99355.42;436585;1285;142258;-62
2023/01/01 00:37:00;;;;;;;8.30;5.50;;;;;;;11.29;87.83;99358.13;435792;1280;141806;-63
2023/01/01 00:47:06;;;;;;;7.70;5.20;;;;;;;11.36;87.55;99358.71;436599;1281;142167;-63
2023/01/01 00:57:12;;;;;;;7.80;5.80;;;;;;;11.34;87.31;99368.86;435829;1282;163621;-63
2023/01/01 01:07:18;;;;;;;8.00;5.00;;;;;;;11.19;87.05;99382.67;436555;1281;144033;-63
2023/01/01 01:17:24;;;;;;;6.70;5.50;;;;;;;10.95;86.99;99396.74;436477;1274;142416;-63
2023/01/01 01:27:29;;;;;;;7.00;4.60;;;;;;;10.78;87.09;99393.02;435843;1282;142406;-63
2023/01/01 01:37:35;;;;;;;6.60;5.00;;;;;;;10.66;87.12;99407.11;436410;1278;142096;-62
2023/01/01 01:47:49;;;;;;;7.20;5.20;;;;;;;10.68;86.95;99403.50;436547;1284;141788;-63
2023/01/01 01:57:55;;;;;;;4.70;4.10;;;;;;;10.67;86.80;99394.48;435828;1283;142573;-63
2023/01/01 02:08:03;;;;;;;6.20;5.00;;;;;;;10.67;86.63;99384.63;436564;1278;143025;-63
2023/01/01 02:18:10;;;;;;;;;;;;;;;10.69;86.39;99384.52;435857;1281;143148;-63
2023/01/01 02:28:24;;;;;;;6.30;4.10;;;;;;;10.74;86.17;99390.64;436793;1281;128536;-62
2023/01/01 02:38:33;;;;;;;5.10;4.60;;;;;;;10.75;85.91;99381.98;436558;1279;142256;-62
2023/01/01 02:48:42;;;;;;;5.50;4.10;;;;;;;10.76;85.70;99395.61;435797;1280;142670;-63
2023/01/01 03:09:28;;;;;;;6.90;4.30;;;;;;;10.91;85.29;99393.72;435608;1274;197915;-63
2023/01/01 03:19:39;;;;;;;3.10;2.80;;;;;;;11.15;84.81;99395.07;435057;1282;141546;-62
2023/01/01 03:29:49;;;;;;;3.70;2.80;;;;;;;11.43;84.06;99409.59;420034;1275;142111;-63
2023/01/01 03:39:57;;;;;;;5.30;4.10;;;;;;;11.44;83.44;99408.46;431645;1274;200161;-64
2023/01/01 03:50:05;;;;;;;5.10;3.70;;;;;;;11.37;83.18;99412.11;434852;1275;144155;-63
2023/01/01 04:00:15;;;;;;;5.50;3.70;;;;;;;11.42;82.81;99413.01;430609;1282;142334;-62
2023/01/01 04:10:21;;;;;;;5.00;3.40;;;;;;;11.40;82.43;99426.25;436387;1281;143565;-62
2023/01/01 04:20:28;;;;;;;4.70;3.60;;;;;;;11.24;82.34;99436.14;420118;1272;141551;-62
2023/01/01 04:30:34;;;;;;;3.40;2.80;;;;;;;11.19;82.47;99438.18;426753;1274;142151;-63
2023/01/01 04:40:39;;;;;;;4.80;3.40;;;;;;;11.23;82.32;99437.23;427897;1274;141732;-62
2023/01/01 04:50:44;;;;;;;3.60;3.10;;;;;;;11.27;82.10;99445.93;420796;1275;142158;-63
2023/01/01 05:00:53;;;;;;;3.90;2.90;;;;;;;11.29;81.80;99451.41;419334;1274;142449;-62
2023/01/01 05:11:04;;;;;;;3.90;2.90;;;;;;;11.25;81.67;99460.94;422656;1274;141484;-62
2023/01/01 05:21:12;;;;;;;3.20;2.70;;;;;;;11.25;81.55;99470.05;422242;1274;145086;-62
2023/01/01 05:31:20;;;;;;;3.20;2.60;;;;;;;11.20;81.23;99474.76;421423;1275;141498;-62
2023/01/01 05:41:27;;;;;;;4.10;3.70;;;;;;;11.15;81.01;99486.35;424132;1281;143578;-62
2023/01/01 05:51:33;;;;;;;4.60;4.20;;;;;;;11.10;80.81;99495.73;419262;1275;142491;-63
2023/01/01 06:01:37;;;;;;;4.10;3.00;;;;;;;11.00;80.71;99511.48;420264;1274;141609;-62
2023/01/01 06:11:50;;;;;;;4.40;2.70;;;;;;;10.89;80.63;99512.94;426633;1281;141193;-63
2023/01/01 06:21:56;;;;;;;4.20;3.40;;;;;;;10.74;80.72;99519.15;422664;1282;142413;-62
2023/01/01 06:32:02;;;;;;;4.10;3.80;;;;;;;10.58;80.69;99526.66;433013;1275;142100;-62
2023/01/01 06:42:08;;;;;;;10.00;3.30;;;;;;;10.51;80.71;99522.02;427019;1274;142248;-62
2023/01/01 06:52:14;;;;;;;3.60;3.10;;;;;;;10.57;80.43;99540.89;425957;1281;142032;-62
2023/01/01 07:02:20;;;;;;;3.90;3.30;;;;;;;10.67;80.11;99554.64;424040;1274;141914;-63
2023/01/01 07:12:27;;;;;;;10.30;3.80;;;;;;;10.80;79.83;99560.77;427257;1274;141881;-63
2023/01/01 07:22:33;;;;;;;2.90;2.50;;;;;;;11.13;79.35;99574.92;424377;1281;142408;-62
2023/01/01 07:32:39;;;;;;;4.10;3.00;;;;;;;11.38;78.77;99583.05;425025;1275;142785;-62
2023/01/01 07:42:45;;;;;;;4.70;2.30;;;;;;;11.68;78.08;99604.59;423435;1278;142927;-63
2023/01/01 07:52:51;;;;;;;4.50;3.40;;;;;;;12.30;77.23;99620.16;421735;1274;142533;-63
2023/01/01 08:02:57;;;;;;;3.20;2.50;;;;;;;13.46;75.62;99632.95;422605;1281;141632;-64
2023/01/01 08:13:04;;;;;;;4.80;2.90;;;;;;;15.56;73.10;99630.54;421271;1275;141454;-63
2023/01/01 08:23:10;;;;;;;4.00;2.30;;;;;;;17.45;69.93;99632.65;421601;1275;142429;-62
2023/01/01 08:33:16;;;;;;;4.80;3.20;;;;;;;18.96;66.39;99627.47;419612;1274;142420;-62
2023/01/01 08:43:22;;;;;;;3.70;2.80;;;;;;;19.90;63.58;99634.84;425053;1281;142137;-63
2023/01/01 08:53:29;;;;;;;5.00;3.70;;;;;;;20.48;61.63;99647.88;420745;1275;141391;-63
2023/01/01 09:03:36;;;;;;;3.40;2.80;;;;;;;21.60;58.99;99663.98;422167;1281;142162;-63
2023/01/01 09:13:41;;;;;;;5.50;3.30;;;;;;;21.06;55.78;99660.67;424607;1281;143041;-62
2023/01/01 09:23:48;;;;;;;3.70;2.90;;;;;;;20.10;54.49;99662.30;420186;1281;142001;-63
2023/01/01 09:33:54;;;;;;;3.40;2.80;;;;;;;19.49;54.50;99658.50;422384;1274;139967;-63
2023/01/01 09:44:09;;;;;;;5.70;2.70;;;;;;;18.14;55.23;99653.02;426485;1274;141252;-62
2023/01/01 09:54:25;;;;;;;3.60;2.50;;;;;;;16.97;56.39;99660.68;424685;1282;141440;-63
2023/01/01 10:04:41;;;;;;;6.70;2.90;;;;;;;16.47;57.29;99655.21;427856;1274;140554;-63
2023/01/01 10:14:52;;;;;;;4.10;3.20;;;;;;;16.19;57.76;99654.62;429237;1282;142897;-63
2023/01/01 10:25:15;;;;;;;3.60;2.30;;;;;;;16.04;57.99;99656.75;431149;1275;141605;-63
2023/01/01 10:35:29;;;;;;;6.00;2.80;;;;;;;15.84;58.36;99659.70;436185;1281;142069;-63
2023/01/01 10:45:38;;;;;;;3.00;2.30;;;;;;;15.65;58.65;99659.82;435652;1281;142082;-63
2023/01/01 10:55:48;;;;;;;3.80;3.10;;;;;;;15.58;58.98;99651.81;436499;1274;141995;-63
2023/01/01 11:06:17;;;;;;;6.80;3.30;;;;;;;15.58;59.13;99640.86;436530;1280;141112;-63
2023/01/01 11:16:25;;;;;;;5.20;2.40;;;;;;;15.53;59.03;99624.81;436155;1283;141424;-63
2023/01/01 11:26:31;;;;;;;2.70;2.50;;;;;;;15.48;58.96;99631.45;436293;1284;141148;-63
2023/01/01 11:36:37;;;;;;;4.80;2.70;;;;;;;15.34;59.05;99626.22;435751;1281;141766;-64
2023/01/01 11:46:46;;;;;;;4.20;3.10;;;;;;;15.23;59.12;99613.36;436475;1285;141549;-64
2023/01/01 11:56:58;;;;;;;5.90;3.00;;;;;;;15.27;59.25;99603.39;434396;1281;143145;-64
2023/01/01 12:07:09;;;;;;;6.20;4.20;;;;;;;15.31;59.30;99600.04;435673;1287;141130;-63
2023/01/01 12:17:20;;;;;;;4.50;3.10;;;;;;;15.34;59.27;99591.52;433887;1280;141437;-64
2023/01/01 12:27:40;;;;;;;4.20;3.50;;;;;;;15.47;59.42;99600.42;435612;1282;142698;-63
2023/01/01 12:37:59;;;;;;;4.60;2.20;;;;;;;15.53;59.22;99615.65;436275;1280;141685;-64
2023/01/01 12:48:22;;;;;;;4.10;2.90;;;;;;;15.47;59.36;99625.00;436242;1282;141343;-64
2023/01/01 12:58:33;;;;;;;5.80;3.30;;;;;;;15.36;59.63;99628.52;435954;1280;142092;-65
2023/01/01 13:08:40;;;;;;;6.80;3.70;;;;;;;15.22;59.60;99625.65;436336;1281;140965;-64
2023/01/01 13:18:51;;;;;;;7.50;3.80;;;;;;;14.98;59.82;99624.05;423885;1281;261483;-65
2023/01/01 13:29:50;;;;;;;11.00;5.50;;;;;;;14.72;60.14;99617.17;436384;1286;145421;-64
2023/01/01 13:39:58;;;;;;;4.70;3.20;;;;;;;14.47;60.57;99634.77;431400;1282;141925;-63
2023/01/01 13:50:10;;;;;;;;;;;;;;;14.26;61.04;99667.28;436436;1286;142008;-64
2023/01/01 14:00:21;;;;;;;4.50;3.40;;;;;;;14.02;61.55;99683.94;436088;1288;128514;-63
2023/01/01 14:10:29;;;;;;;5.90;4.30;;;;;;;13.73;62.20;99715.43;436433;1281;140471;-65
2023/01/01 14:20:42;;;;;;;5.30;3.90;;;;;;;13.40;62.93;99741.95;436407;1282;141730;-65
2023/01/01 14:30:48;;;;;;;5.40;4.20;;;;;;;13.08;63.68;99744.77;435759;1281;141995;-65
2023/01/01 14:41:06;;;;;;;6.90;3.70;;;;;;;12.80;64.41;99755.35;436347;1284;141876;-63
2023/01/01 14:51:16;;;;;;;7.90;4.80;;;;;;;12.56;65.18;99758.45;435543;1279;163704;-65
2023/01/01 15:01:26;;;;;;;7.60;5.40;;;;;;;12.30;65.87;99753.53;436483;1289;141796;-64
2023/01/01 15:11:33;;;;;;;6.20;4.60;;;;;;;12.07;66.58;99733.36;428166;1274;143389;-63
2023/01/01 15:21:41;;;;;;;5.90;4.30;;;;;;;11.92;67.21;99726.06;427703;1282;141762;-65
2023/01/01 15:31:53;;;;;;;6.70;4.90;;;;;;;11.81;67.62;99723.83;436661;1287;141860;-65
2023/01/01 15:41:59;;;;;;;10.70;6.40;;;;;;;11.76;67.80;99747.27;436644;1282;144526;-64
2023/01/01 15:52:22;;;;;;;8.80;6.70;;;;;;;11.73;68.02;99772.37;435220;1275;142043;-65
2023/01/01 16:02:31;;;;;;;9.40;6.90;;;;;;;11.67;68.20;99815.21;421667;1275;142069;-65
2023/01/01 16:12:38;;;;;;;9.10;6.80;;;;;;;11.56;68.62;99820.84;435745;1282;144305;-65
2023/01/01 16:22:44;;;;;;;7.50;5.10;;;;;;;11.47;68.77;99817.39;433057;1282;142031;-64
2023/01/01 16:32:50;;;;;;;9.10;6.90;;;;;;;11.33;69.18;99824.92;436622;1280;142775;-64
2023/01/01 16:42:56;;;;;;;14.50;7.90;;;;;;;11.22;69.50;99837.33;435229;1284;142797;-64
2023/01/01 16:53:01;;;;;;;10.00;6.70;;;;;;;11.12;69.73;99841.96;436653;1279;143832;-65
2023/01/01 17:03:09;;;;;;;11.30;6.70;;;;;;;11.04;70.08;99841.95;425963;1281;145676;-63
2023/01/01 17:13:15;;;;;;;8.50;7.10;;;;;;;10.96;70.26;99845.05;429018;1283;142009;-64
